sensor_id;sensor_type;location;lat;lon;timestamp;P1;durP1;ratioP1;P2;durP2;ratioP2
61897;SDS011;47850;50.274;18.908;2023-07-29T00:01:37;9.20;;;6.30;;
61897;SDS011;47850;50.274;18.908;2023-07-29T00:04:07;10.60;;;5.90;;
61897;SDS011;47850;50.274;18.908;2023-07-29T00:06:36;9.20;;;6.40;;
61897;SDS011;47850;50.274;18.908;2023-07-29T00:09:04;8.50;;;5.80;;
61897;SDS011;47850;50.274;18.908;2023-07-29T00:11:32;10.50;;;6.70;;
61897;SDS011;47850;50.274;18.908;2023-07-29T00:14:01;7.80;;;6.00;;
61897;SDS011;47850;50.274;18.908;2023-07-29T00:16:29;9.20;;;5.90;;
61897;SDS011;47850;50.274;18.908;2023-07-29T00:18:57;8.40;;;5.60;;
61897;SDS011;47850;50.274;18.908;2023-07-29T00:21:24;6.50;;;5.20;;
61897;SDS011;47850;50.274;18.908;2023-07-29T00:23:52;8.00;;;5.10;;
61897;SDS011;47850;50.274;18.908;2023-07-29T00:26:20;8.10;;;4.90;;
61897;SDS011;47850;50.274;18.908;2023-07-29T00:28:49;6.20;;;4.70;;
61897;SDS011;47850;50.274;18.908;2023-07-29T00:31:16;8.80;;;4.90;;
61897;SDS011;47850;50.274;18.908;2023-07-29T00:33:45;13.80;;;5.10;;
61897;SDS011;47850;50.274;18.908;2023-07-29T00:36:13;9.90;;;5.40;;
61897;SDS011;47850;50.274;18.908;2023-07-29T00:38:40;6.60;;;4.80;;
61897;SDS011;47850;50.274;18.908;2023-07-29T00:41:08;9.40;;;5.30;;
61897;SDS011;47850;50.274;18.908;2023-07-29T00:43:40;8.30;;;4.80;;
61897;SDS011;47850;50.274;18.908;2023-07-29T00:46:08;8.70;;;5.30;;
61897;SDS011;47850;50.274;18.908;2023-07-29T00:48:37;6.90;;;5.20;;
61897;SDS011;47850;50.274;18.908;2023-07-29T00:51:05;8.50;;;5.10;;
61897;SDS011;47850;50.274;18.908;2023-07-29T00:53:33;7.40;;;5.20;;
61897;SDS011;47850;50.274;18.908;2023-07-29T00:56:01;10.50;;;5.50;;
61897;SDS011;47850;50.274;18.908;2023-07-29T00:58:28;7.30;;;5.10;;
61897;SDS011;47850;50.274;18.908;2023-07-29T01:00:56;7.50;;;4.20;;
61897;SDS011;47850;50.274;18.908;2023-07-29T01:03:24;8.20;;;5.40;;
61897;SDS011;47850;50.274;18.908;2023-07-29T01:14:12;8.60;;;5.70;;
61897;SDS011;47850;50.274;18.908;2023-07-29T01:16:47;8.50;;;5.20;;
61897;SDS011;47850;50.274;18.908;2023-07-29T01:21:56;6.50;;;4.40;;
61897;SDS011;47850;50.274;18.908;2023-07-29T01:24:25;10.50;;;5.40;;
61897;SDS011;47850;50.274;18.908;2023-07-29T01:26:53;8.20;;;4.90;;
61897;SDS011;47850;50.274;18.908;2023-07-29T01:29:21;6.60;;;5.10;;
61897;SDS011;47850;50.274;18.908;2023-07-29T01:31:49;6.80;;;4.80;;
61897;SDS011;47850;50.274;18.908;2023-07-29T01:34:32;8.70;;;5.10;;
61897;SDS011;47850;50.274;18.908;2023-07-29T01:37:07;8.90;;;4.90;;
61897;SDS011;47850;50.274;18.908;2023-07-29T01:39:40;7.00;;;4.90;;
61897;SDS011;47850;50.274;18.908;2023-07-29T01:42:12;8.10;;;4.90;;
61897;SDS011;47850;50.274;18.908;2023-07-29T01:44:40;7.30;;;5.30;;
61897;SDS011;47850;50.274;18.908;2023-07-29T01:47:10;10.80;;;6.30;;
61897;SDS011;47850;50.274;18.908;2023-07-29T01:49:38;10.40;;;6.20;;
61897;SDS011;47850;50.274;18.908;2023-07-29T01:52:06;9.20;;;6.00;;
61897;SDS011;47850;50.274;18.908;2023-07-29T01:54:33;9.20;;;6.20;;
61897;SDS011;47850;50.274;18.908;2023-07-29T01:57:01;9.10;;;5.40;;
61897;SDS011;47850;50.274;18.908;2023-07-29T01:59:29;10.70;;;6.10;;
61897;SDS011;47850;50.274;18.908;2023-07-29T02:01:57;6.60;;;4.70;;
61897;SDS011;47850;50.274;18.908;2023-07-29T02:04:24;6.80;;;5.30;;
61897;SDS011;47850;50.274;18.908;2023-07-29T02:06:52;8.30;;;5.90;;
61897;SDS011;47850;50.274;18.908;2023-07-29T02:09:20;10.70;;;7.60;;
61897;SDS011;47850;50.274;18.908;2023-07-29T02:11:48;11.80;;;7.90;;
61897;SDS011;47850;50.274;18.908;2023-07-29T02:14:15;16.30;;;7.90;;
61897;SDS011;47850;50.274;18.908;2023-07-29T02:16:43;10.70;;;7.00;;
61897;SDS011;47850;50.274;18.908;2023-07-29T02:19:11;10.50;;;6.50;;
61897;SDS011;47850;50.274;18.908;2023-07-29T02:21:38;9.70;;;6.70;;
61897;SDS011;47850;50.274;18.908;2023-07-29T02:24:06;9.90;;;6.80;;
61897;SDS011;47850;50.274;18.908;2023-07-29T02:26:34;9.80;;;6.20;;
61897;SDS011;47850;50.274;18.908;2023-07-29T02:29:02;9.30;;;5.90;;
61897;SDS011;47850;50.274;18.908;2023-07-29T02:31:30;8.20;;;5.70;;
61897;SDS011;47850;50.274;18.908;2023-07-29T02:33:58;10.40;;;6.50;;
61897;SDS011;47850;50.274;18.908;2023-07-29T02:36:25;9.90;;;6.10;;
61897;SDS011;47850;50.274;18.908;2023-07-29T02:38:53;9.70;;;5.80;;
61897;SDS011;47850;50.274;18.908;2023-07-29T02:41:21;14.50;;;6.40;;
61897;SDS011;47850;50.274;18.908;2023-07-29T02:43:49;8.00;;;5.80;;
61897;SDS011;47850;50.274;18.908;2023-07-29T02:46:17;10.10;;;5.30;;
61897;SDS011;47850;50.274;18.908;2023-07-29T02:48:45;10.00;;;5.50;;
61897;SDS011;47850;50.274;18.908;2023-07-29T02:51:13;6.90;;;4.90;;
61897;SDS011;47850;50.274;18.908;2023-07-29T02:53:41;9.70;;;5.70;;
61897;SDS011;47850;50.274;18.908;2023-07-29T02:56:09;7.00;;;5.30;;
61897;SDS011;47850;50.274;18.908;2023-07-29T02:58:37;11.20;;;5.80;;
61897;SDS011;47850;50.274;18.908;2023-07-29T03:01:05;9.60;;;5.40;;
61897;SDS011;47850;50.274;18.908;2023-07-29T03:03:33;11.00;;;5.40;;
61897;SDS011;47850;50.274;18.908;2023-07-29T03:06:02;7.30;;;5.30;;
61897;SDS011;47850;50.274;18.908;2023-07-29T03:08:31;7.60;;;5.00;;
61897;SDS011;47850;50.274;18.908;2023-07-29T03:10:59;7.40;;;5.00;;
61897;SDS011;47850;50.274;18.908;2023-07-29T03:13:42;7.50;;;5.40;;
61897;SDS011;47850;50.274;18.908;2023-07-29T03:16:15;7.30;;;5.10;;
61897;SDS011;47850;50.274;18.908;2023-07-29T03:18:44;10.00;;;5.90;;
61897;SDS011;47850;50.274;18.908;2023-07-29T03:21:12;9.40;;;5.30;;
61897;SDS011;47850;50.274;18.908;2023-07-29T03:23:40;8.80;;;5.60;;
61897;SDS011;47850;50.274;18.908;2023-07-29T03:26:08;8.60;;;5.60;;
61897;SDS011;47850;50.274;18.908;2023-07-29T03:28:39;8.40;;;5.40;;
61897;SDS011;47850;50.274;18.908;2023-07-29T03:31:09;12.60;;;6.00;;
61897;SDS011;47850;50.274;18.908;2023-07-29T03:33:37;7.30;;;5.90;;
61897;SDS011;47850;50.274;18.908;2023-07-29T03:36:05;8.40;;;5.70;;
61897;SDS011;47850;50.274;18.908;2023-07-29T03:38:33;8.90;;;5.70;;
61897;SDS011;47850;50.274;18.908;2023-07-29T03:41:02;7.90;;;6.10;;
61897;SDS011;47850;50.274;18.908;2023-07-29T03:43:30;7.00;;;5.20;;
61897;SDS011;47850;50.274;18.908;2023-07-29T03:45:58;11.40;;;5.60;;
61897;SDS011;47850;50.274;18.908;2023-07-29T03:48:26;8.30;;;5.60;;
61897;SDS011;47850;50.274;18.908;2023-07-29T03:50:53;9.40;;;5.40;;
61897;SDS011;47850;50.274;18.908;2023-07-29T03:53:22;8.80;;;5.90;;
61897;SDS011;47850;50.274;18.908;2023-07-29T03:55:49;10.30;;;5.50;;
61897;SDS011;47850;50.274;18.908;2023-07-29T03:58:17;10.20;;;6.20;;
61897;SDS011;47850;50.274;18.908;2023-07-29T04:00:45;8.90;;;5.80;;
61897;SDS011;47850;50.274;18.908;2023-07-29T04:03:13;9.70;;;5.60;;
61897;SDS011;47850;50.274;18.908;2023-07-29T04:05:41;10.80;;;5.60;;
61897;SDS011;47850;50.274;18.908;2023-07-29T04:08:09;7.50;;;5.10;;
61897;SDS011;47850;50.274;18.908;2023-07-29T04:10:37;11.40;;;6.00;;
61897;SDS011;47850;50.274;18.908;2023-07-29T04:13:05;7.30;;;5.20;;
61897;SDS011;47850;50.274;18.908;2023-07-29T04:15:33;7.70;;;5.30;;
61897;SDS011;47850;50.274;18.908;2023-07-29T04:18:00;7.70;;;5.30;;
61897;SDS011;47850;50.274;18.908;2023-07-29T04:20:28;9.90;;;5.40;;
61897;SDS011;47850;50.274;18.908;2023-07-29T04:22:56;8.40;;;5.90;;
61897;SDS011;47850;50.274;18.908;2023-07-29T04:25:24;10.10;;;6.30;;
61897;SDS011;47850;50.274;18.908;2023-07-29T04:27:52;11.70;;;8.30;;
61897;SDS011;47850;50.274;18.908;2023-07-29T04:30:19;10.30;;;6.70;;
61897;SDS011;47850;50.274;18.908;2023-07-29T04:32:47;10.10;;;6.20;;
61897;SDS011;47850;50.274;18.908;2023-07-29T04:35:15;9.70;;;5.60;;
61897;SDS011;47850;50.274;18.908;2023-07-29T04:37:43;9.50;;;5.80;;
61897;SDS011;47850;50.274;18.908;2023-07-29T04:40:11;9.20;;;5.50;;
61897;SDS011;47850;50.274;18.908;2023-07-29T04:42:39;8.00;;;5.40;;
61897;SDS011;47850;50.274;18.908;2023-07-29T04:45:07;8.30;;;5.30;;
61897;SDS011;47850;50.274;18.908;2023-07-29T04:47:34;8.50;;;5.30;;
61897;SDS011;47850;50.274;18.908;2023-07-29T04:50:02;9.00;;;5.30;;
61897;SDS011;47850;50.274;18.908;2023-07-29T04:52:30;7.50;;;4.80;;
61897;SDS011;47850;50.274;18.908;2023-07-29T04:54:58;7.10;;;4.30;;
61897;SDS011;47850;50.274;18.908;2023-07-29T04:57:26;7.00;;;4.80;;
61897;SDS011;47850;50.274;18.908;2023-07-29T04:59:53;7.00;;;4.70;;
61897;SDS011;47850;50.274;18.908;2023-07-29T05:02:21;8.00;;;5.10;;
61897;SDS011;47850;50.274;18.908;2023-07-29T05:04:49;10.90;;;5.80;;
61897;SDS011;47850;50.274;18.908;2023-07-29T05:07:17;11.80;;;5.90;;
61897;SDS011;47850;50.274;18.908;2023-07-29T05:09:44;9.00;;;5.40;;
61897;SDS011;47850;50.274;18.908;2023-07-29T05:12:12;8.20;;;5.60;;
61897;SDS011;47850;50.274;18.908;2023-07-29T05:14:40;8.30;;;6.00;;
61897;SDS011;47850;50.274;18.908;2023-07-29T05:17:08;10.70;;;5.90;;
61897;SDS011;47850;50.274;18.908;2023-07-29T05:19:35;8.30;;;5.80;;
61897;SDS011;47850;50.274;18.908;2023-07-29T05:22:03;9.10;;;6.00;;
61897;SDS011;47850;50.274;18.908;2023-07-29T05:24:31;9.20;;;6.30;;
61897;SDS011;47850;50.274;18.908;2023-07-29T05:26:59;12.20;;;5.80;;
61897;SDS011;47850;50.274;18.908;2023-07-29T05:29:29;7.10;;;5.00;;
61897;SDS011;47850;50.274;18.908;2023-07-29T05:31:56;7.10;;;5.20;;
61897;SDS011;47850;50.274;18.908;2023-07-29T05:34:24;10.10;;;5.50;;
61897;SDS011;47850;50.274;18.908;2023-07-29T05:36:52;7.00;;;4.00;;
61897;SDS011;47850;50.274;18.908;2023-07-29T05:39:20;5.50;;;4.20;;
61897;SDS011;47850;50.274;18.908;2023-07-29T05:41:47;6.20;;;4.10;;
61897;SDS011;47850;50.274;18.908;2023-07-29T05:44:15;5.90;;;4.00;;
61897;SDS011;47850;50.274;18.908;2023-07-29T05:46:43;5.80;;;4.50;;
61897;SDS011;47850;50.274;18.908;2023-07-29T05:49:10;5.00;;;4.00;;
61897;SDS011;47850;50.274;18.908;2023-07-29T05:51:39;8.00;;;4.60;;
61897;SDS011;47850;50.274;18.908;2023-07-29T05:54:07;7.20;;;4.70;;
61897;SDS011;47850;50.274;18.908;2023-07-29T05:56:34;6.20;;;4.60;;
61897;SDS011;47850;50.274;18.908;2023-07-29T05:59:02;6.50;;;4.60;;
61897;SDS011;47850;50.274;18.908;2023-07-29T06:01:30;6.50;;;4.00;;
61897;SDS011;47850;50.274;18.908;2023-07-29T06:03:58;7.80;;;4.10;;
61897;SDS011;47850;50.274;18.908;2023-07-29T06:06:25;5.60;;;3.90;;
61897;SDS011;47850;50.274;18.908;2023-07-29T06:08:54;6.30;;;4.30;;
61897;SDS011;47850;50.274;18.908;2023-07-29T06:11:21;5.90;;;4.00;;
61897;SDS011;47850;50.274;18.908;2023-07-29T06:13:49;4.30;;;3.60;;
61897;SDS011;47850;50.274;18.908;2023-07-29T06:16:17;5.70;;;3.80;;
61897;SDS011;47850;50.274;18.908;2023-07-29T06:18:45;6.00;;;3.60;;
61897;SDS011;47850;50.274;18.908;2023-07-29T06:21:13;7.20;;;3.30;;
61897;SDS011;47850;50.274;18.908;2023-07-29T06:23:44;4.50;;;3.30;;
61897;SDS011;47850;50.274;18.908;2023-07-29T06:26:12;4.50;;;2.90;;
61897;SDS011;47850;50.274;18.908;2023-07-29T06:28:39;6.30;;;4.10;;
61897;SDS011;47850;50.274;18.908;2023-07-29T06:31:07;4.80;;;3.40;;
61897;SDS011;47850;50.274;18.908;2023-07-29T06:33:35;4.50;;;2.70;;
61897;SDS011;47850;50.274;18.908;2023-07-29T06:36:03;6.30;;;2.60;;
61897;SDS011;47850;50.274;18.908;2023-07-29T06:38:31;5.50;;;2.80;;
61897;SDS011;47850;50.274;18.908;2023-07-29T06:40:59;5.40;;;2.80;;
61897;SDS011;47850;50.274;18.908;2023-07-29T06:43:26;4.60;;;2.70;;
61897;SDS011;47850;50.274;18.908;2023-07-29T06:45:54;3.60;;;2.50;;
61897;SDS011;47850;50.274;18.908;2023-07-29T06:48:22;4.50;;;2.50;;
61897;SDS011;47850;50.274;18.908;2023-07-29T06:50:50;4.40;;;2.80;;
61897;SDS011;47850;50.274;18.908;2023-07-29T06:53:18;5.30;;;2.80;;
61897;SDS011;47850;50.274;18.908;2023-07-29T06:55:46;3.70;;;2.50;;
61897;SDS011;47850;50.274;18.908;2023-07-29T06:58:14;6.60;;;2.50;;
61897;SDS011;47850;50.274;18.908;2023-07-29T07:00:41;6.90;;;2.40;;
61897;SDS011;47850;50.274;18.908;2023-07-29T07:03:09;5.80;;;2.40;;
61897;SDS011;47850;50.274;18.908;2023-07-29T07:05:37;3.80;;;2.40;;
61897;SDS011;47850;50.274;18.908;2023-07-29T07:08:05;5.90;;;2.50;;
61897;SDS011;47850;50.274;18.908;2023-07-29T07:10:32;4.00;;;2.40;;
61897;SDS011;47850;50.274;18.908;2023-07-29T07:13:01;3.80;;;2.30;;
61897;SDS011;47850;50.274;18.908;2023-07-29T07:15:29;6.70;;;2.40;;
61897;SDS011;47850;50.274;18.908;2023-07-29T07:17:56;4.30;;;2.40;;
61897;SDS011;47850;50.274;18.908;2023-07-29T07:20:24;5.30;;;2.60;;
61897;SDS011;47850;50.274;18.908;2023-07-29T07:22:52;7.20;;;2.60;;
61897;SDS011;47850;50.274;18.908;2023-07-29T07:25:20;8.90;;;2.40;;
61897;SDS011;47850;50.274;18.908;2023-07-29T07:27:47;3.30;;;2.30;;
61897;SDS011;47850;50.274;18.908;2023-07-29T07:30:16;6.50;;;2.50;;
61897;SDS011;47850;50.274;18.908;2023-07-29T07:32:43;3.70;;;2.40;;
61897;SDS011;47850;50.274;18.908;2023-07-29T07:35:12;4.90;;;2.20;;
61897;SDS011;47850;50.274;18.908;2023-07-29T07:37:44;5.00;;;2.50;;
61897;SDS011;47850;50.274;18.908;2023-07-29T07:40:12;4.80;;;2.30;;
61897;SDS011;47850;50.274;18.908;2023-07-29T07:42:40;7.90;;;2.30;;
61897;SDS011;47850;50.274;18.908;2023-07-29T07:45:07;3.40;;;1.90;;
61897;SDS011;47850;50.274;18.908;2023-07-29T07:47:36;3.00;;;1.90;;
61897;SDS011;47850;50.274;18.908;2023-07-29T07:50:04;4.50;;;1.70;;
61897;SDS011;47850;50.274;18.908;2023-07-29T07:52:32;5.60;;;1.60;;
61897;SDS011;47850;50.274;18.908;2023-07-29T07:55:00;2.00;;;1.50;;
61897;SDS011;47850;50.274;18.908;2023-07-29T07:57:28;3.80;;;1.60;;
61897;SDS011;47850;50.274;18.908;2023-07-29T07:59:56;2.50;;;1.70;;
61897;SDS011;47850;50.274;18.908;2023-07-29T08:02:23;6.40;;;2.10;;
61897;SDS011;47850;50.274;18.908;2023-07-29T08:04:51;4.00;;;1.50;;
61897;SDS011;47850;50.274;18.908;2023-07-29T08:07:19;2.50;;;1.60;;
61897;SDS011;47850;50.274;18.908;2023-07-29T08:09:47;2.90;;;1.70;;
61897;SDS011;47850;50.274;18.908;2023-07-29T08:12:14;4.00;;;1.60;;
61897;SDS011;47850;50.274;18.908;2023-07-29T08:14:42;2.60;;;1.40;;
61897;SDS011;47850;50.274;18.908;2023-07-29T08:17:10;2.30;;;1.60;;
61897;SDS011;47850;50.274;18.908;2023-07-29T08:19:37;4.30;;;2.40;;
61897;SDS011;47850;50.274;18.908;2023-07-29T08:22:05;3.30;;;1.70;;
61897;SDS011;47850;50.274;18.908;2023-07-29T08:24:33;2.10;;;1.40;;
61897;SDS011;47850;50.274;18.908;2023-07-29T08:27:01;4.70;;;1.70;;
61897;SDS011;47850;50.274;18.908;2023-07-29T08:29:29;3.30;;;1.50;;
61897;SDS011;47850;50.274;18.908;2023-07-29T08:31:57;2.30;;;1.50;;
61897;SDS011;47850;50.274;18.908;2023-07-29T08:34:24;5.00;;;1.50;;
61897;SDS011;47850;50.274;18.908;2023-07-29T08:36:52;5.40;;;1.50;;
61897;SDS011;47850;50.274;18.908;2023-07-29T08:39:20;2.20;;;1.40;;
61897;SDS011;47850;50.274;18.908;2023-07-29T08:42:02;2.10;;;1.50;;
61897;SDS011;47850;50.274;18.908;2023-07-29T08:44:36;3.40;;;1.40;;
61897;SDS011;47850;50.274;18.908;2023-07-29T08:47:08;2.40;;;1.60;;
61897;SDS011;47850;50.274;18.908;2023-07-29T08:49:37;5.30;;;1.40;;
61897;SDS011;47850;50.274;18.908;2023-07-29T08:52:06;3.90;;;1.60;;
61897;SDS011;47850;50.274;18.908;2023-07-29T08:54:35;1.90;;;1.50;;
61897;SDS011;47850;50.274;18.908;2023-07-29T08:57:03;3.00;;;1.40;;
61897;SDS011;47850;50.274;18.908;2023-07-29T08:59:32;3.60;;;1.40;;
61897;SDS011;47850;50.274;18.908;2023-07-29T09:02:00;2.20;;;1.70;;
61897;SDS011;47850;50.274;18.908;2023-07-29T09:04:28;5.00;;;1.30;;
61897;SDS011;47850;50.274;18.908;2023-07-29T09:06:56;2.90;;;1.70;;
61897;SDS011;47850;50.274;18.908;2023-07-29T09:09:26;3.50;;;1.50;;
61897;SDS011;47850;50.274;18.908;2023-07-29T09:11:54;1.90;;;1.40;;
61897;SDS011;47850;50.274;18.908;2023-07-29T09:14:22;4.50;;;1.40;;
61897;SDS011;47850;50.274;18.908;2023-07-29T09:16:51;4.10;;;1.50;;
61897;SDS011;47850;50.274;18.908;2023-07-29T09:19:19;1.60;;;1.30;;
61897;SDS011;47850;50.274;18.908;2023-07-29T09:21:47;2.70;;;1.20;;
61897;SDS011;47850;50.274;18.908;2023-07-29T09:24:15;2.80;;;1.10;;
61897;SDS011;47850;50.274;18.908;2023-07-29T09:26:49;4.20;;;1.20;;
61897;SDS011;47850;50.274;18.908;2023-07-29T09:29:21;2.30;;;1.20;;
61897;SDS011;47850;50.274;18.908;2023-07-29T09:31:50;1.40;;;1.30;;
61897;SDS011;47850;50.274;18.908;2023-07-29T09:34:17;1.40;;;1.30;;
61897;SDS011;47850;50.274;18.908;2023-07-29T09:36:45;4.60;;;1.40;;
61897;SDS011;47850;50.274;18.908;2023-07-29T09:39:13;2.60;;;1.00;;
61897;SDS011;47850;50.274;18.908;2023-07-29T09:41:41;3.40;;;1.20;;
61897;SDS011;47850;50.274;18.908;2023-07-29T09:44:14;1.70;;;1.30;;
61897;SDS011;47850;50.274;18.908;2023-07-29T09:46:45;3.80;;;1.50;;
61897;SDS011;47850;50.274;18.908;2023-07-29T09:49:13;4.90;;;2.80;;
61897;SDS011;47850;50.274;18.908;2023-07-29T09:51:41;4.10;;;1.50;;
61897;SDS011;47850;50.274;18.908;2023-07-29T09:54:09;1.90;;;1.30;;
61897;SDS011;47850;50.274;18.908;2023-07-29T09:56:41;2.90;;;1.20;;
61897;SDS011;47850;50.274;18.908;2023-07-29T09:59:12;4.50;;;1.10;;
61897;SDS011;47850;50.274;18.908;2023-07-29T10:01:40;3.60;;;1.50;;
61897;SDS011;47850;50.274;18.908;2023-07-29T10:04:09;1.30;;;1.20;;
61897;SDS011;47850;50.274;18.908;2023-07-29T10:06:38;2.00;;;1.30;;
61897;SDS011;47850;50.274;18.908;2023-07-29T10:09:06;3.40;;;1.50;;
61897;SDS011;47850;50.274;18.908;2023-07-29T10:11:35;2.70;;;1.40;;
61897;SDS011;47850;50.274;18.908;2023-07-29T10:14:03;1.90;;;1.40;;
61897;SDS011;47850;50.274;18.908;2023-07-29T10:16:31;2.30;;;1.70;;
61897;SDS011;47850;50.274;18.908;2023-07-29T10:19:00;1.80;;;1.30;;
61897;SDS011;47850;50.274;18.908;2023-07-29T10:21:28;3.00;;;1.50;;
61897;SDS011;47850;50.274;18.908;2023-07-29T10:23:57;2.70;;;1.70;;
61897;SDS011;47850;50.274;18.908;2023-07-29T10:26:33;2.80;;;1.80;;
61897;SDS011;47850;50.274;18.908;2023-07-29T10:29:02;3.20;;;1.90;;
61897;SDS011;47850;50.274;18.908;2023-07-29T10:31:35;3.70;;;1.70;;
61897;SDS011;47850;50.274;18.908;2023-07-29T10:34:06;2.50;;;1.60;;
61897;SDS011;47850;50.274;18.908;2023-07-29T10:36:35;2.20;;;1.60;;
61897;SDS011;47850;50.274;18.908;2023-07-29T10:39:03;3.50;;;1.70;;
61897;SDS011;47850;50.274;18.908;2023-07-29T10:47:13;2.90;;;1.70;;
61897;SDS011;47850;50.274;18.908;2023-07-29T10:49:44;3.20;;;1.50;;
61897;SDS011;47850;50.274;18.908;2023-07-29T10:52:13;4.30;;;1.70;;
61897;SDS011;47850;50.274;18.908;2023-07-29T10:54:46;3.60;;;1.90;;
61897;SDS011;47850;50.274;18.908;2023-07-29T10:57:15;4.40;;;2.00;;
61897;SDS011;47850;50.274;18.908;2023-07-29T10:59:58;2.00;;;1.60;;
61897;SDS011;47850;50.274;18.908;2023-07-29T11:02:33;5.50;;;1.80;;
61897;SDS011;47850;50.274;18.908;2023-07-29T11:05:16;6.90;;;1.60;;
61897;SDS011;47850;50.274;18.908;2023-07-29T11:07:45;6.80;;;1.60;;
61897;SDS011;47850;50.274;18.908;2023-07-29T11:10:14;2.10;;;1.60;;
61897;SDS011;47850;50.274;18.908;2023-07-29T11:20:16;2.90;;;1.60;;
61897;SDS011;47850;50.274;18.908;2023-07-29T11:22:45;2.20;;;1.70;;
61897;SDS011;47850;50.274;18.908;2023-07-29T11:25:14;2.50;;;1.90;;
61897;SDS011;47850;50.274;18.908;2023-07-29T11:27:44;2.30;;;1.50;;
61897;SDS011;47850;50.274;18.908;2023-07-29T11:30:14;2.70;;;1.80;;
61897;SDS011;47850;50.274;18.908;2023-07-29T11:32:44;5.60;;;1.80;;
61897;SDS011;47850;50.274;18.908;2023-07-29T11:35:16;4.10;;;1.50;;
61897;SDS011;47850;50.274;18.908;2023-07-29T11:37:46;5.40;;;1.80;;
61897;SDS011;47850;50.274;18.908;2023-07-29T11:40:15;3.60;;;1.80;;
61897;SDS011;47850;50.274;18.908;2023-07-29T11:45:19;3.40;;;1.60;;
61897;SDS011;47850;50.274;18.908;2023-07-29T11:47:48;2.10;;;1.80;;
61897;SDS011;47850;50.274;18.908;2023-07-29T11:50:16;2.10;;;1.70;;
61897;SDS011;47850;50.274;18.908;2023-07-29T11:52:46;2.90;;;1.80;;
61897;SDS011;47850;50.274;18.908;2023-07-29T11:55:14;3.40;;;1.80;;
61897;SDS011;47850;50.274;18.908;2023-07-29T11:57:43;2.50;;;1.70;;
61897;SDS011;47850;50.274;18.908;2023-07-29T12:00:11;3.20;;;1.50;;
61897;SDS011;47850;50.274;18.908;2023-07-29T12:02:40;2.70;;;2.00;;
61897;SDS011;47850;50.274;18.908;2023-07-29T12:05:14;2.90;;;1.70;;
61897;SDS011;47850;50.274;18.908;2023-07-29T12:07:43;3.00;;;1.80;;
61897;SDS011;47850;50.274;18.908;2023-07-29T12:12:49;2.00;;;1.50;;
61897;SDS011;47850;50.274;18.908;2023-07-29T12:15:28;2.10;;;1.50;;
61897;SDS011;47850;50.274;18.908;2023-07-29T12:17:59;3.80;;;1.70;;
61897;SDS011;47850;50.274;18.908;2023-07-29T12:20:27;2.60;;;1.40;;
61897;SDS011;47850;50.274;18.908;2023-07-29T12:22:58;4.80;;;1.70;;
61897;SDS011;47850;50.274;18.908;2023-07-29T12:25:29;3.60;;;1.70;;
61897;SDS011;47850;50.274;18.908;2023-07-29T12:28:06;4.30;;;1.80;;
61897;SDS011;47850;50.274;18.908;2023-07-29T12:30:40;2.30;;;1.40;;
61897;SDS011;47850;50.274;18.908;2023-07-29T12:33:09;1.90;;;1.50;;
61897;SDS011;47850;50.274;18.908;2023-07-29T12:35:37;1.80;;;1.50;;
61897;SDS011;47850;50.274;18.908;2023-07-29T12:38:05;2.80;;;1.90;;
61897;SDS011;47850;50.274;18.908;2023-07-29T12:40:37;4.00;;;1.50;;
61897;SDS011;47850;50.274;18.908;2023-07-29T12:43:07;4.00;;;1.70;;
61897;SDS011;47850;50.274;18.908;2023-07-29T12:45:35;3.20;;;1.50;;
61897;SDS011;47850;50.274;18.908;2023-07-29T12:48:03;3.40;;;1.40;;
61897;SDS011;47850;50.274;18.908;2023-07-29T12:50:31;3.50;;;1.40;;
61897;SDS011;47850;50.274;18.908;2023-07-29T12:52:59;2.00;;;1.40;;
61897;SDS011;47850;50.274;18.908;2023-07-29T12:55:27;4.20;;;1.70;;
61897;SDS011;47850;50.274;18.908;2023-07-29T12:57:55;2.90;;;1.40;;
61897;SDS011;47850;50.274;18.908;2023-07-29T13:00:23;1.40;;;1.20;;
61897;SDS011;47850;50.274;18.908;2023-07-29T13:02:50;1.90;;;1.40;;
61897;SDS011;47850;50.274;18.908;2023-07-29T13:05:19;2.10;;;1.10;;
61897;SDS011;47850;50.274;18.908;2023-07-29T13:07:46;1.70;;;1.20;;
61897;SDS011;47850;50.274;18.908;2023-07-29T13:10:14;2.60;;;1.20;;
61897;SDS011;47850;50.274;18.908;2023-07-29T13:12:42;3.40;;;1.30;;
61897;SDS011;47850;50.274;18.908;2023-07-29T13:15:10;2.30;;;1.10;;
61897;SDS011;47850;50.274;18.908;2023-07-29T13:17:38;2.20;;;1.20;;
61897;SDS011;47850;50.274;18.908;2023-07-29T13:20:06;4.10;;;1.20;;
61897;SDS011;47850;50.274;18.908;2023-07-29T13:22:34;5.00;;;1.20;;
61897;SDS011;47850;50.274;18.908;2023-07-29T13:25:02;1.20;;;0.90;;
61897;SDS011;47850;50.274;18.908;2023-07-29T13:27:30;1.50;;;1.00;;
61897;SDS011;47850;50.274;18.908;2023-07-29T13:29:58;1.80;;;1.00;;
61897;SDS011;47850;50.274;18.908;2023-07-29T13:32:26;1.40;;;1.00;;
61897;SDS011;47850;50.274;18.908;2023-07-29T13:34:54;3.10;;;0.90;;
61897;SDS011;47850;50.274;18.908;2023-07-29T13:37:21;1.70;;;1.20;;
61897;SDS011;47850;50.274;18.908;2023-07-29T13:39:49;1.70;;;1.20;;
61897;SDS011;47850;50.274;18.908;2023-07-29T13:42:17;3.40;;;1.30;;
61897;SDS011;47850;50.274;18.908;2023-07-29T13:44:45;2.80;;;1.20;;
61897;SDS011;47850;50.274;18.908;2023-07-29T13:47:12;2.00;;;1.20;;
61897;SDS011;47850;50.274;18.908;2023-07-29T13:49:40;3.00;;;1.10;;
61897;SDS011;47850;50.274;18.908;2023-07-29T13:52:08;1.40;;;0.80;;
61897;SDS011;47850;50.274;18.908;2023-07-29T13:54:36;2.30;;;0.90;;
61897;SDS011;47850;50.274;18.908;2023-07-29T13:57:03;1.00;;;0.80;;
61897;SDS011;47850;50.274;18.908;2023-07-29T13:59:31;1.30;;;0.90;;
61897;SDS011;47850;50.274;18.908;2023-07-29T14:01:59;1.30;;;1.10;;
61897;SDS011;47850;50.274;18.908;2023-07-29T14:04:27;1.00;;;0.70;;
61897;SDS011;47850;50.274;18.908;2023-07-29T14:06:57;1.10;;;0.90;;
61897;SDS011;47850;50.274;18.908;2023-07-29T14:09:25;1.10;;;0.80;;
61897;SDS011;47850;50.274;18.908;2023-07-29T14:11:54;0.90;;;0.80;;
61897;SDS011;47850;50.274;18.908;2023-07-29T14:14:22;3.80;;;1.10;;
61897;SDS011;47850;50.274;18.908;2023-07-29T14:16:50;1.80;;;0.80;;
61897;SDS011;47850;50.274;18.908;2023-07-29T14:19:17;2.10;;;1.10;;
61897;SDS011;47850;50.274;18.908;2023-07-29T14:21:45;3.80;;;1.00;;
61897;SDS011;47850;50.274;18.908;2023-07-29T14:24:13;2.50;;;0.90;;
61897;SDS011;47850;50.274;18.908;2023-07-29T14:26:41;2.80;;;1.10;;
61897;SDS011;47850;50.274;18.908;2023-07-29T14:29:11;3.00;;;1.00;;
61897;SDS011;47850;50.274;18.908;2023-07-29T14:31:39;1.40;;;0.90;;
61897;SDS011;47850;50.274;18.908;2023-07-29T14:34:07;2.40;;;1.10;;
61897;SDS011;47850;50.274;18.908;2023-07-29T14:36:35;4.90;;;1.00;;
61897;SDS011;47850;50.274;18.908;2023-07-29T14:39:02;3.60;;;1.00;;
61897;SDS011;47850;50.274;18.908;2023-07-29T14:41:30;1.30;;;0.90;;
61897;SDS011;47850;50.274;18.908;2023-07-29T14:43:59;1.30;;;1.10;;
61897;SDS011;47850;50.274;18.908;2023-07-29T14:46:26;2.60;;;1.10;;
61897;SDS011;47850;50.274;18.908;2023-07-29T14:48:54;1.20;;;1.00;;
61897;SDS011;47850;50.274;18.908;2023-07-29T14:51:22;2.60;;;1.20;;
61897;SDS011;47850;50.274;18.908;2023-07-29T14:53:50;1.90;;;1.20;;
61897;SDS011;47850;50.274;18.908;2023-07-29T14:56:18;3.60;;;1.20;;
61897;SDS011;47850;50.274;18.908;2023-07-29T14:58:46;1.90;;;1.10;;
61897;SDS011;47850;50.274;18.908;2023-07-29T15:01:14;1.10;;;0.80;;
61897;SDS011;47850;50.274;18.908;2023-07-29T15:03:41;1.40;;;0.90;;
61897;SDS011;47850;50.274;18.908;2023-07-29T15:06:09;2.90;;;0.90;;
61897;SDS011;47850;50.274;18.908;2023-07-29T15:08:37;1.60;;;0.90;;
61897;SDS011;47850;50.274;18.908;2023-07-29T15:11:05;0.90;;;0.90;;